This is the latest recevied weather packets stored in our database for station/object K3JSE-4. If no packets are shown the sender has not sent any weather packets the latest 10 day(s).
| Time | Temp. | Humidity | Pressure | Rain* | Wind** | Luminosity | Snow |
|---|---|---|---|---|---|---|---|
| 1777499143 | 12.22° C | 72% | 1010.1 hPa | 0 mm | - | - | - |
| 1777498843 | 11.67° C | 74% | 1010.3 hPa | 0 mm | - | - | - |
| 1777498543 | 11.67° C | 76% | 1010.3 hPa | 0 mm | - | - | - |
| 1777498243 | 11.67° C | 76% | 1010.4 hPa | 0 mm | - | - | - |
| 1777497943 | 11.67° C | 77% | 1010.6 hPa | 0 mm | - | - | - |
| 1777497643 | 12.22° C | 75% | 1010.6 hPa | 0 mm | - | - | - |
| 1777497343 | 13.33° C | 71% | 1010.8 hPa | 0 mm | - | - | - |
| 1777497043 | 13.89° C | 65% | 1010.8 hPa | 0 mm | - | - | - |
| 1777496743 | 13.89° C | 65% | 1010.6 hPa | 0 mm | - | - | - |
| 1777496443 | 13.89° C | 65% | 1010.7 hPa | 0 mm | - | - | - |
| 1777496143 | 13.89° C | 67% | 1010.4 hPa | 0 mm | - | - | - |
| 1777495843 | 13.33° C | 67% | 1010.5 hPa | 0 mm | - | - | - |
| 1777495543 | 13.33° C | 68% | 1010.6 hPa | 0 mm | - | - | - |
| 1777495243 | 13.89° C | 68% | 1010.7 hPa | 0 mm | - | - | - |
| 1777494943 | 13.89° C | 66% | 1010.7 hPa | 0 mm | - | - | - |
| 1777494643 | 13.89° C | 68% | 1010.8 hPa | 0 mm | - | - | - |
| 1777494344 | 13.89° C | 68% | 1010.8 hPa | 0 mm | - | - | - |
| 1777494044 | 13.33° C | 68% | 1011 hPa | 0 mm | - | - | - |
| 1777493744 | 13.33° C | 66% | 1011 hPa | 0 mm | - | - | - |
| 1777493444 | 13.33° C | 65% | 1011.1 hPa | 0 mm | - | - | - |
| 1777493144 | 13.33° C | 69% | 1011 hPa | 0 mm | - | - | - |
| 1777492844 | 13.33° C | 68% | 1011.2 hPa | 0 mm | - | - | - |
| 1777492544 | 13.33° C | 69% | 1011.3 hPa | 0 mm | - | - | - |
| 1777492244 | 13.33° C | 67% | 1011.6 hPa | 0 mm | - | - | - |
| 1777491944 | 13.33° C | 67% | 1011.7 hPa | 0 mm | - | - | - |
* Rain latest hour (hover to see other rain measurements)
** Current wind speed in m/s (hover to see current wind gust speed)